Time;durP1;ratioP1;P1;durP2;ratioP2;P2;SDS_P1;SDS_P2;PMS_P1;PMS_P2;Temp;Humidity;BMP_temperature;BMP_pressure;BME280_temperature;BME280_humidity;BME280_pressure;Samples;Min_cycle;Max_cycle;Signal;HPM_P1;HPM_P2
2023/04/18 00:00:10;;;;;;;16.43;10.30;;;11.80;52.50;;;;;;5075209;28;20540;-90
2023/04/18 00:02:42;;;;;;;17.63;10.77;;;11.80;52.20;;;;;;5077729;28;20859;-88
2023/04/18 00:05:11;;;;;;;13.47;10.47;;;11.80;52.20;;;;;;5075874;28;20812;-87
2023/04/18 00:07:38;;;;;;;14.13;9.80;;;11.80;52.10;;;;;;5072345;28;20504;-87
2023/04/18 00:10:06;;;;;;;15.07;10.50;;;11.70;52.20;;;;;;5063189;28;20444;-87
2023/04/18 00:12:35;;;;;;;11.80;9.10;;;11.70;52.30;;;;;;5091068;27;20542;-88
2023/04/18 00:15:03;;;;;;;15.23;9.97;;;11.70;52.10;;;;;;5083157;28;20509;-88
2023/04/18 00:17:34;;;;;;;16.43;9.93;;;11.70;52.10;;;;;;5065585;28;20446;-88
2023/04/18 00:20:03;;;;;;;17.30;10.70;;;11.70;52.10;;;;;;5051806;28;20550;-87
2023/04/18 00:22:31;;;;;;;15.87;10.60;;;11.70;52.20;;;;;;5081263;27;20554;-90
2023/04/18 00:24:58;;;;;;;14.33;9.97;;;11.70;52.10;;;;;;5079120;28;20439;-88
2023/04/18 00:27:25;;;;;;;12.87;9.93;;;11.60;52.60;;;;;;5082477;28;20504;-86
2023/04/18 00:29:52;;;;;;;16.40;10.47;;;11.40;53.20;;;;;;5091402;27;20478;-86
2023/04/18 00:32:19;;;;;;;13.40;9.50;;;11.40;53.20;;;;;;5087628;28;20499;-88
2023/04/18 00:34:47;;;;;;;19.37;10.07;;;11.40;53.00;;;;;;5064655;28;20456;-87
2023/04/18 00:37:15;;;;;;;18.23;10.57;;;11.40;52.90;;;;;;5065846;28;20492;-89
2023/04/18 00:39:42;;;;;;;12.17;10.07;;;11.50;52.80;;;;;;5077549;28;20447;-88
2023/04/18 00:42:09;;;;;;;17.20;10.23;;;11.50;52.70;;;;;;5057149;28;20491;-87
2023/04/18 00:44:36;;;;;;;12.30;9.77;;;11.50;52.60;;;;;;5071030;27;20443;-90
2023/04/18 00:47:04;;;;;;;12.10;10.27;;;11.50;52.60;;;;;;5081443;28;20455;-86
2023/04/18 00:49:31;;;;;;;15.70;10.67;;;11.50;52.60;;;;;;5073251;28;20452;-87
2023/04/18 00:51:59;;;;;;;15.23;10.07;;;11.40;52.80;;;;;;5088240;28;20490;-88
2023/04/18 00:54:27;;;;;;;14.63;10.23;;;11.40;52.70;;;;;;5048995;28;20459;-89
2023/04/18 00:56:55;;;;;;;15.40;11.40;;;11.40;52.80;;;;;;5083016;28;20451;-89
2023/04/18 00:59:22;;;;;;;18.67;9.90;;;11.30;53.30;;;;;;5073591;28;20521;-87
2023/04/18 01:01:49;;;;;;;15.53;10.87;;;11.30;53.90;;;;;;5064459;27;20482;-88
2023/04/18 01:04:16;;;;;;;17.90;10.70;;;11.30;54.10;;;;;;5038048;28;20751;-87
2023/04/18 01:06:44;;;;;;;15.30;10.50;;;11.30;54.00;;;;;;5047660;28;21270;-87
2023/04/18 01:09:14;;;;;;;17.37;9.53;;;11.40;53.80;;;;;;5064171;28;20463;-87
2023/04/18 01:11:41;;;;;;;19.97;12.40;;;11.20;54.20;;;;;;5082431;28;20785;-88
2023/04/18 01:14:10;;;;;;;15.43;10.77;;;11.20;54.40;;;;;;5039796;28;20480;-88
2023/04/18 01:16:37;;;;;;;18.40;11.70;;;11.20;55.00;;;;;;5047492;28;20882;-88
2023/04/18 01:19:05;;;;;;;12.60;9.80;;;11.20;55.20;;;;;;5060296;28;20452;-88
2023/04/18 01:21:35;;;;;;;13.70;10.23;;;11.30;55.00;;;;;;5070263;27;20539;-88
2023/04/18 01:24:10;;;;;;;14.97;10.60;;;11.40;54.70;;;;;;5050476;28;20448;-88
2023/04/18 01:26:37;;;;;;;17.10;10.03;;;11.40;55.00;;;;;;5082832;28;20461;-89
2023/04/18 01:29:05;;;;;;;16.30;11.20;;;11.40;55.00;;;;;;5043659;28;20479;-89
2023/04/18 01:31:34;;;;;;;15.83;10.43;;;11.40;54.80;;;;;;5043383;28;20968;-87
2023/04/18 01:34:01;;;;;;;13.60;9.93;;;11.40;54.80;;;;;;5064009;28;20472;-86
2023/04/18 01:36:29;;;;;;;18.70;11.53;;;11.40;54.90;;;;;;5058295;28;20451;-90
2023/04/18 01:38:56;;;;;;;15.30;10.97;;;11.50;54.70;;;;;;5051454;28;20466;-87
2023/04/18 01:41:26;;;;;;;17.03;11.33;;;11.50;54.70;;;;;;5076307;28;20731;-87
2023/04/18 01:43:53;;;;;;;19.70;10.50;;;11.50;54.50;;;;;;5050747;28;20465;-88
2023/04/18 01:46:20;;;;;;;13.40;10.17;;;11.50;54.40;;;;;;5088586;28;20455;-85
2023/04/18 01:48:47;;;;;;;18.53;10.53;;;11.50;54.30;;;;;;5089701;27;20975;-89
2023/04/18 01:51:14;;;;;;;19.37;11.47;;;11.50;54.40;;;;;;5040236;28;20443;-85
2023/04/18 01:53:41;;;;;;;17.53;11.10;;;11.40;54.90;;;;;;5050215;27;20909;-88
2023/04/18 01:56:10;;;;;;;15.03;10.53;;;11.40;54.90;;;;;;5094328;28;20466;-88
2023/04/18 01:58:40;;;;;;;20.17;11.47;;;11.30;54.70;;;;;;5049190;28;20451;-85
2023/04/18 02:01:07;;;;;;;16.00;10.43;;;11.30;54.50;;;;;;5079221;28;20478;-88
2023/04/18 02:03:34;;;;;;;13.63;9.67;;;11.30;54.10;;;;;;5085768;28;20547;-87
2023/04/18 02:06:02;;;;;;;14.77;10.97;;;11.30;54.40;;;;;;5092452;28;20450;-87
2023/04/18 02:08:34;;;;;;;15.37;10.80;;;11.20;54.90;;;;;;5080749;28;20972;-87
2023/04/18 02:11:05;;;;;;;16.07;9.97;;;11.20;54.60;;;;;;5051521;28;20457;-86
2023/04/18 02:13:32;;;;;;;16.93;10.60;;;11.20;54.30;;;;;;5050599;28;20502;-88
2023/04/18 02:16:01;;;;;;;15.97;11.00;;;11.20;54.10;;;;;;5046766;28;21037;-88
2023/04/18 02:18:29;;;;;;;16.50;10.77;;;11.30;54.10;;;;;;5071133;28;20487;-86
2023/04/18 02:20:56;;;;;;;16.53;12.00;;;11.20;53.90;;;;;;5069948;28;20467;-87
2023/04/18 02:23:23;;;;;;;17.87;11.23;;;11.20;54.10;;;;;;5040966;28;20491;-88
2023/04/18 02:25:50;;;;;;;19.00;10.97;;;11.10;53.90;;;;;;5072884;28;20448;-86
2023/04/18 02:28:17;;;;;;;19.60;12.20;;;11.10;53.90;;;;;;5071825;28;20548;-88
2023/04/18 02:30:45;;;;;;;21.20;10.60;;;11.00;54.30;;;;;;5048313;28;20501;-87
2023/04/18 02:33:13;;;;;;;18.57;11.70;;;11.00;54.30;;;;;;5087962;28;20486;-85
2023/04/18 02:35:40;;;;;;;17.57;11.23;;;11.00;54.00;;;;;;5043685;28;20535;-89
2023/04/18 02:38:09;;;;;;;16.03;10.43;;;11.00;54.00;;;;;;5075541;28;20475;-90
2023/04/18 02:40:36;;;;;;;20.43;12.10;;;11.00;54.10;;;;;;5053530;28;20445;-87
2023/04/18 02:43:03;;;;;;;17.93;11.50;;;10.90;54.10;;;;;;5074274;28;20476;-88
2023/04/18 02:45:31;;;;;;;23.20;11.60;;;10.90;54.30;;;;;;5089691;28;20444;-86
2023/04/18 02:48:01;;;;;;;18.70;11.60;;;10.90;54.10;;;;;;5078055;28;20458;-89
2023/04/18 02:50:30;;;;;;;17.57;12.10;;;10.80;54.40;;;;;;5103731;27;20463;-87
2023/04/18 02:52:58;;;;;;;18.63;11.23;;;10.60;55.00;;;;;;5075096;28;21058;-88
2023/04/18 02:55:33;;;;;;;20.70;11.77;;;10.60;54.50;;;;;;5045654;28;20450;-88
2023/04/18 02:58:01;;;;;;;14.33;10.27;;;10.50;54.90;;;;;;5077073;28;20458;-89
2023/04/18 03:00:52;;;;;;;17.17;11.97;;;10.60;54.80;;;;;;5080003;28;20573;-88
2023/04/18 03:03:38;;;;;;;18.03;11.83;;;10.60;54.50;;;;;;5075380;27;20471;-86
2023/04/18 03:06:19;;;;;;;14.20;9.90;;;10.70;54.40;;;;;;5072180;28;20454;-88
2023/04/18 03:08:47;;;;;;;17.60;11.23;;;10.70;54.20;;;;;;5066731;28;20470;-86
2023/04/18 03:11:14;;;;;;;18.40;11.77;;;10.70;54.30;;;;;;5097059;27;20952;-89
2023/04/18 03:13:41;;;;;;;17.83;12.20;;;10.70;54.40;;;;;;5074867;27;20502;-87
2023/04/18 03:16:09;;;;;;;20.00;12.40;;;10.70;54.50;;;;;;5076687;28;20450;-89
2023/04/18 03:18:36;;;;;;;17.60;12.80;;;10.70;54.50;;;;;;5075189;28;20508;-89
2023/04/18 03:21:03;;;;;;;23.70;11.27;;;10.60;55.00;;;;;;5079204;28;20455;-87
2023/04/18 03:23:34;;;;;;;19.13;12.17;;;10.70;54.80;;;;;;5084301;28;20498;-90
2023/04/18 03:26:05;;;;;;;20.53;12.17;;;10.70;54.80;;;;;;5109122;27;20451;-87
2023/04/18 03:28:33;;;;;;;19.93;11.97;;;10.60;55.10;;;;;;5069295;28;20598;-87
2023/04/18 03:31:01;;;;;;;15.80;10.67;;;10.40;55.90;;;;;;5076174;28;20959;-88
2023/04/18 03:33:28;;;;;;;18.80;13.30;;;10.40;55.90;;;;;;5057152;28;20467;-86
2023/04/18 03:36:05;;;;;;;20.33;11.97;;;10.40;56.20;;;;;;5106452;27;20471;-88
2023/04/18 03:38:33;;;;;;;15.23;11.13;;;10.40;56.00;;;;;;5091602;27;20458;-87
2023/04/18 03:41:01;;;;;;;19.50;11.37;;;10.40;56.40;;;;;;5060683;28;20443;-89
2023/04/18 03:43:33;;;;;;;18.33;12.00;;;10.40;56.30;;;;;;5073143;28;20463;-88
2023/04/18 03:46:01;;;;;;;19.97;12.57;;;10.40;56.60;;;;;;5074769;28;20452;-86
2023/04/18 03:48:28;;;;;;;19.60;13.20;;;10.40;56.50;;;;;;5059669;28;20459;-87
2023/04/18 03:50:58;;;;;;;17.80;12.70;;;10.40;56.70;;;;;;5079399;28;20626;-87
2023/04/18 03:53:25;;;;;;;18.20;13.80;;;10.60;56.10;;;;;;5067073;28;20455;-87
2023/04/18 03:55:54;;;;;;;22.20;17.07;;;10.60;56.10;;;;;;5049865;28;20451;-86
2023/04/18 03:58:25;;;;;;;27.67;18.40;;;10.60;56.10;;;;;;5059285;28;20450;-87
2023/04/18 04:00:53;;;;;;;24.80;16.00;;;10.70;56.40;;;;;;5051300;28;20778;-87
2023/04/18 04:03:20;;;;;;;23.70;16.60;;;10.80;56.40;;;;;;5051918;28;20499;-88
2023/04/18 04:05:47;;;;;;;25.10;16.97;;;10.90;56.30;;;;;;5073671;27;20459;-87
2023/04/18 04:08:16;;;;;;;18.17;14.20;;;11.00;56.30;;;;;;5091659;28;20986;-90
2023/04/18 04:10:45;;;;;;;23.37;14.50;;;11.00;56.40;;;;;;5109021;27;20541;-87
2023/04/18 04:13:13;;;;;;;28.17;14.13;;;11.10;56.60;;;;;;5050635;28;20475;-87
2023/04/18 04:15:41;;;;;;;18.63;13.40;;;11.10;56.60;;;;;;5081605;28;20471;-86
2023/04/18 04:18:10;;;;;;;23.73;13.90;;;11.20;56.40;;;;;;5048075;28;20448;-88
2023/04/18 04:20:41;;;;;;;16.13;12.23;;;11.20;56.40;;;;;;5048615;28;20443;-86
2023/04/18 04:23:13;;;;;;;18.60;12.20;;;11.20;56.20;;;;;;5059776;28;20575;-87
2023/04/18 04:25:45;;;;;;;23.03;13.47;;;11.20;56.30;;;;;;5076224;28;20588;-87
2023/04/18 04:28:22;;;;;;;22.03;13.23;;;11.30;56.50;;;;;;5063776;28;20485;-86
2023/04/18 04:30:58;;;;;;;22.73;12.53;;;11.30;56.60;;;;;;5068121;28;20474;-87
2023/04/18 04:33:27;;;;;;;19.70;12.63;;;11.20;56.90;;;;;;5063002;28;20709;-89
2023/04/18 04:35:58;;;;;;;18.83;12.77;;;11.20;56.90;;;;;;5077305;28;20467;-86
2023/04/18 04:38:26;;;;;;;25.93;13.20;;;11.30;57.10;;;;;;5109806;27;20462;-87
2023/04/18 04:40:54;;;;;;;16.80;13.80;;;11.30;57.10;;;;;;5074983;28;20640;-86
2023/04/18 04:43:23;;;;;;;19.53;12.97;;;11.40;57.00;;;;;;5089170;28;20464;-87
2023/04/18 04:45:51;;;;;;;20.00;13.93;;;11.40;56.90;;;;;;5041837;28;20497;-88
2023/04/18 04:48:23;;;;;;;18.43;12.70;;;11.40;56.90;;;;;;5043745;28;20554;-88
2023/04/18 04:50:52;;;;;;;16.93;12.00;;;11.40;56.70;;;;;;5065846;28;20479;-88
2023/04/18 04:53:19;;;;;;;19.33;13.10;;;11.40;56.80;;;;;;5072798;28;20959;-87
2023/04/18 04:55:47;;;;;;;21.03;13.40;;;11.50;56.80;;;;;;5082912;28;20992;-88
2023/04/18 04:58:16;;;;;;;17.70;12.47;;;11.50;56.80;;;;;;5079328;28;20491;-88
2023/04/18 05:00:59;;;;;;;22.13;13.80;;;11.50;56.90;;;;;;5063089;28;20442;-86
2023/04/18 05:03:26;;;;;;;25.90;14.17;;;11.50;57.20;;;;;;5050791;28;20841;-86
2023/04/18 05:05:54;;;;;;;19.83;13.67;;;11.50;56.80;;;;;;5067527;28;20452;-87
2023/04/18 05:08:21;;;;;;;21.10;12.33;;;11.50;56.70;;;;;;5050205;28;20546;-86
2023/04/18 05:10:48;;;;;;;27.60;13.23;;;11.50;57.10;;;;;;5063932;28;20456;-87
2023/04/18 05:13:16;;;;;;;33.30;17.90;;;11.40;57.40;;;;;;5089512;28;20471;-86
2023/04/18 05:15:43;;;;;;;23.10;15.10;;;11.40;57.00;;;;;;5089565;28;20475;-86
2023/04/18 05:18:12;;;;;;;19.10;14.47;;;11.40;56.90;;;;;;5058831;28;20462;-87
2023/04/18 05:20:40;;;;;;;22.07;13.80;;;11.40;57.00;;;;;;5089198;27;20537;-87
2023/04/18 05:23:06;;;;;;;24.83;15.63;;;11.50;57.50;;;;;;5087745;28;20804;-87
2023/04/18 05:25:33;;;;;;;28.40;13.50;;;11.60;57.10;;;;;;5053212;28;20443;-88
2023/04/18 05:28:03;;;;;;;27.87;14.97;;;11.50;56.70;;;;;;5055048;27;20455;-87
2023/04/18 05:30:30;;;;;;;20.10;12.80;;;11.50;56.50;;;;;;5088874;27;20917;-87
2023/04/18 05:32:57;;;;;;;20.23;12.93;;;11.40;56.70;;;;;;5061935;28;20471;-87
2023/04/18 05:35:26;;;;;;;20.93;13.80;;;11.40;57.20;;;;;;5069280;28;20463;-86
2023/04/18 05:37:53;;;;;;;24.70;13.63;;;11.60;57.50;;;;;;5079757;27;20448;-86
2023/04/18 05:40:20;;;;;;;18.63;13.43;;;11.70;57.60;;;;;;5053228;28;20435;-86
2023/04/18 05:42:47;;;;;;;19.90;13.33;;;11.70;57.40;;;;;;5061491;28;20477;-87
2023/04/18 05:45:14;;;;;;;22.30;13.80;;;11.70;57.00;;;;;;5054795;28;20817;-87
2023/04/18 05:47:41;;;;;;;21.27;13.57;;;11.70;57.30;;;;;;5040402;28;20455;-86
2023/04/18 05:50:09;;;;;;;19.53;13.93;;;11.80;56.90;;;;;;5088427;28;20448;-88
2023/04/18 05:52:38;;;;;;;28.23;12.87;;;11.80;57.10;;;;;;5087759;28;20467;-87
2023/04/18 05:55:05;;;;;;;17.03;12.27;;;11.80;57.00;;;;;;5053987;28;20470;-88
2023/04/18 05:57:32;;;;;;;17.27;12.23;;;11.90;57.30;;;;;;5103019;27;20447;-87
2023/04/18 05:59:59;;;;;;;20.10;13.47;;;12.00;57.20;;;;;;5069540;28;20956;-86
2023/04/18 06:02:26;;;;;;;21.10;12.50;;;12.10;57.40;;;;;;5088774;28;20995;-87
2023/04/18 06:04:55;;;;;;;19.13;11.20;;;12.00;56.80;;;;;;5067100;28;20504;-86
2023/04/18 06:07:23;;;;;;;17.30;12.60;;;12.00;57.10;;;;;;5060198;28;20463;-87
2023/04/18 06:09:52;;;;;;;20.93;11.93;;;11.80;56.90;;;;;;5070961;28;20454;-87
2023/04/18 06:12:19;;;;;;;18.20;12.73;;;12.00;56.80;;;;;;5043603;28;20473;-86
2023/04/18 06:14:46;;;;;;;33.60;18.93;;;12.00;56.70;;;;;;5089286;28;20471;-87
2023/04/18 06:17:13;;;;;;;24.30;14.53;;;12.00;57.20;;;;;;5087809;28;20972;-85
2023/04/18 06:19:40;;;;;;;34.17;18.73;;;12.00;57.20;;;;;;5101262;27;20451;-86
2023/04/18 06:22:07;;;;;;;22.07;13.60;;;12.10;57.20;;;;;;5087352;28;20486;-86
2023/04/18 06:24:36;;;;;;;20.40;14.63;;;12.30;57.10;;;;;;5052910;28;20459;-87
2023/04/18 06:27:05;;;;;;;17.60;11.70;;;12.30;57.20;;;;;;5088309;28;20454;-87
2023/04/18 06:29:34;;;;;;;22.23;13.70;;;12.30;56.80;;;;;;5054247;28;20455;-86
2023/04/18 06:32:01;;;;;;;22.70;11.97;;;12.40;56.90;;;;;;5085208;28;20463;-86
2023/04/18 06:34:28;;;;;;;15.93;10.40;;;12.40;56.80;;;;;;5087281;28;21209;-86
2023/04/18 06:36:55;;;;;;;19.50;11.20;;;12.30;56.80;;;;;;5076443;27;20854;-86
2023/04/18 06:39:22;;;;;;;17.07;11.23;;;12.20;57.10;;;;;;5094447;27;20447;-87
2023/04/18 06:41:49;;;;;;;16.50;10.40;;;12.00;57.50;;;;;;5086758;27;20994;-85
2023/04/18 06:44:30;;;;;;;17.20;10.73;;;11.90;57.90;;;;;;5079859;28;21058;-87
2023/04/18 06:46:58;;;;;;;17.93;10.37;;;11.80;58.60;;;;;;5076931;27;21417;-85
2023/04/18 06:49:25;;;;;;;15.97;10.50;;;11.90;58.50;;;;;;5093581;27;20997;-86
2023/04/18 06:51:52;;;;;;;17.27;10.33;;;11.90;58.40;;;;;;5093879;27;20449;-86
2023/04/18 06:54:19;;;;;;;17.23;10.47;;;12.00;58.80;;;;;;5093106;27;20463;-86
2023/04/18 06:56:46;;;;;;;18.50;11.67;;;12.00;58.60;;;;;;5101455;27;20538;-86
2023/04/18 06:59:13;;;;;;;13.60;8.80;;;12.20;58.30;;;;;;5076063;28;20936;-86
2023/04/18 07:01:41;;;;;;;15.80;9.90;;;12.30;58.20;;;;;;5060301;28;20521;-86
2023/04/18 07:04:09;;;;;;;16.53;9.07;;;12.30;57.90;;;;;;5076342;27;20443;-86
2023/04/18 07:06:36;;;;;;;15.37;9.60;;;12.10;58.20;;;;;;5093656;27;20627;-86
2023/04/18 07:09:03;;;;;;;13.40;8.53;;;12.00;58.80;;;;;;5092231;27;20956;-86
2023/04/18 07:11:30;;;;;;;12.13;8.53;;;12.10;58.70;;;;;;5076009;28;20529;-86
2023/04/18 07:13:57;;;;;;;14.00;9.07;;;12.00;59.00;;;;;;5074811;27;20471;-85
2023/04/18 07:16:25;;;;;;;11.53;8.60;;;12.00;59.10;;;;;;5094947;28;20481;-85
2023/04/18 07:18:53;;;;;;;14.70;8.90;;;12.30;58.80;;;;;;5063760;27;20447;-86
2023/04/18 07:21:20;;;;;;;14.73;9.20;;;12.40;58.00;;;;;;5096757;27;21354;-85
2023/04/18 07:23:48;;;;;;;14.33;8.70;;;12.30;58.20;;;;;;5092963;27;21058;-84
2023/04/18 07:26:15;;;;;;;13.30;8.33;;;12.40;58.10;;;;;;5093357;27;20472;-86
2023/04/18 07:28:42;;;;;;;14.30;7.80;;;12.40;58.30;;;;;;5049488;27;20455;-86
2023/04/18 07:31:13;;;;;;;16.60;9.00;;;12.50;58.10;;;;;;5074089;27;20452;-86
2023/04/18 07:33:40;;;;;;;11.77;8.60;;;12.40;57.90;;;;;;5074111;28;20477;-86
2023/04/18 07:36:09;;;;;;;12.70;8.67;;;12.20;58.90;;;;;;5092690;27;20477;-86
2023/04/18 07:38:36;;;;;;;14.53;9.33;;;12.50;58.20;;;;;;5083497;28;21017;-85
2023/04/18 07:41:03;;;;;;;10.80;7.60;;;12.30;58.70;;;;;;5096004;27;20439;-85
2023/04/18 07:43:30;;;;;;;13.00;7.80;;;12.20;59.30;;;;;;5094571;27;20468;-85
2023/04/18 07:45:57;;;;;;;24.17;10.50;;;12.30;59.10;;;;;;5093510;27;20459;-85
2023/04/18 07:48:25;;;;;;;18.27;9.10;;;12.20;59.20;;;;;;5071728;28;20454;-86
2023/04/18 07:50:52;;;;;;;12.50;7.63;;;12.50;58.90;;;;;;5064411;28;20455;-85
2023/04/18 07:53:20;;;;;;;10.63;7.50;;;12.60;58.90;;;;;;5080487;28;20843;-86
2023/04/18 07:55:47;;;;;;;12.37;7.93;;;12.60;58.60;;;;;;5072780;28;20463;-85
2023/04/18 07:58:14;;;;;;;13.60;7.60;;;12.50;58.30;;;;;;5090543;27;20446;-85
2023/04/18 08:00:43;;;;;;;12.80;8.23;;;12.60;58.70;;;;;;5063076;28;20452;-86
2023/04/18 08:03:11;;;;;;;11.87;7.40;;;12.70;58.20;;;;;;5071971;28;20531;-86
2023/04/18 08:05:38;;;;;;;21.83;9.57;;;12.50;58.60;;;;;;5078672;28;20445;-85
2023/04/18 08:08:06;;;;;;;11.23;6.80;;;12.60;58.80;;;;;;5090385;28;20803;-85
2023/04/18 08:10:35;;;;;;;8.43;6.07;;;12.80;58.30;;;;;;5080146;28;20850;-86
2023/04/18 08:13:03;;;;;;;12.80;6.80;;;12.90;57.90;;;;;;5087373;28;20484;-85
2023/04/18 08:15:31;;;;;;;11.57;7.20;;;13.10;58.20;;;;;;5096950;28;20467;-86
2023/04/18 08:17:58;;;;;;;11.60;6.67;;;13.20;57.80;;;;;;5055957;28;20455;-86
2023/04/18 08:20:25;;;;;;;11.57;7.20;;;13.30;57.00;;;;;;5089638;28;20496;-85
2023/04/18 08:22:52;;;;;;;9.10;6.63;;;13.20;57.50;;;;;;5107183;27;20475;-87
2023/04/18 08:25:19;;;;;;;12.80;7.00;;;13.20;56.80;;;;;;5090671;27;20474;-85
2023/04/18 08:27:48;;;;;;;6.63;5.87;;;13.10;57.80;;;;;;5054714;28;20823;-85
2023/04/18 08:30:15;;;;;;;9.37;6.77;;;13.20;57.50;;;;;;5092284;27;20454;-86
2023/04/18 08:32:42;;;;;;;9.90;6.37;;;13.50;57.20;;;;;;5087624;28;20470;-87
2023/04/18 08:35:10;;;;;;;7.50;6.07;;;13.70;57.10;;;;;;5088867;27;20667;-86
2023/04/18 08:37:37;;;;;;;12.87;7.80;;;13.80;56.30;;;;;;5087972;28;20496;-87
2023/04/18 08:40:06;;;;;;;9.77;7.17;;;13.90;56.30;;;;;;5090753;27;20442;-86
2023/04/18 08:42:33;;;;;;;9.70;7.27;;;13.70;56.50;;;;;;5090001;28;20474;-86
2023/04/18 08:45:03;;;;;;;9.63;6.50;;;13.90;56.80;;;;;;5071225;27;20440;-86
2023/04/18 08:47:31;;;;;;;9.50;7.10;;;14.00;55.40;;;;;;5069434;27;20448;-85
2023/04/18 08:49:58;;;;;;;11.00;8.00;;;13.70;56.20;;;;;;5089217;27;20451;-86
2023/04/18 08:52:27;;;;;;;8.00;5.77;;;13.70;56.50;;;;;;5073459;28;20524;-86
2023/04/18 08:54:54;;;;;;;7.57;6.10;;;14.00;56.40;;;;;;5069820;27;20531;-85
2023/04/18 08:57:25;;;;;;;7.53;5.97;;;14.00;55.70;;;;;;5072499;28;20443;-86
2023/04/18 08:59:54;;;;;;;8.63;6.13;;;13.90;55.60;;;;;;5091433;27;20472;-86
2023/04/18 09:02:37;;;;;;;10.13;5.97;;;13.90;56.20;;;;;;5092801;27;20529;-85
2023/04/18 09:05:12;;;;;;;7.27;5.70;;;14.10;56.70;;;;;;5079236;28;20443;-86
2023/04/18 09:07:39;;;;;;;10.20;6.90;;;14.30;55.40;;;;;;5089835;27;20670;-85
2023/04/18 09:10:07;;;;;;;10.07;6.73;;;14.30;55.70;;;;;;5070439;28;20475;-86
2023/04/18 09:12:41;;;;;;;7.83;5.37;;;14.20;56.10;;;;;;5070347;28;20485;-86
2023/04/18 09:15:13;;;;;;;8.83;6.10;;;14.40;55.90;;;;;;5071478;27;20860;-86
2023/04/18 09:17:44;;;;;;;9.27;6.10;;;14.70;55.30;;;;;;5069262;28;21010;-85
2023/04/18 09:20:14;;;;;;;6.30;5.00;;;14.70;54.80;;;;;;5089539;28;20472;-86
2023/04/18 09:22:50;;;;;;;7.67;5.43;;;14.50;55.50;;;;;;5055971;28;20466;-86
2023/04/18 09:25:28;;;;;;;6.07;5.47;;;14.50;55.40;;;;;;5090875;28;20443;-85
2023/04/18 09:27:56;;;;;;;7.70;5.83;;;14.60;55.30;;;;;;5088901;27;20937;-84
2023/04/18 09:30:32;;;;;;;10.17;5.60;;;14.80;54.80;;;;;;5089182;27;20538;-86
2023/04/18 09:33:02;;;;;;;7.17;5.40;;;14.70;54.70;;;;;;5052619;28;21150;-85
2023/04/18 09:35:30;;;;;;;8.37;5.70;;;14.70;55.30;;;;;;5073438;28;21018;-85
2023/04/18 09:37:57;;;;;;;8.80;6.40;;;14.70;54.90;;;;;;5074393;28;21005;-85
2023/04/18 09:40:24;;;;;;;9.13;6.20;;;14.80;54.70;;;;;;5071886;28;20455;-85
2023/04/18 09:42:53;;;;;;;7.30;5.70;;;15.00;54.70;;;;;;5090894;28;20550;-85
2023/04/18 09:45:20;;;;;;;9.60;6.17;;;15.10;53.90;;;;;;5095421;28;20448;-85
2023/04/18 09:47:47;;;;;;;8.10;5.50;;;14.90;54.40;;;;;;5070635;28;20452;-86
2023/04/18 09:50:17;;;;;;;5.90;5.30;;;14.90;54.70;;;;;;5088219;28;20442;-85
2023/04/18 09:52:45;;;;;;;9.67;6.20;;;14.90;55.10;;;;;;5090003;28;20514;-86
2023/04/18 09:55:14;;;;;;;8.00;6.20;;;15.10;54.60;;;;;;5089007;27;20474;-85
2023/04/18 09:57:44;;;;;;;7.07;5.30;;;15.10;54.80;;;;;;5088852;27;20543;-85
2023/04/18 10:00:19;;;;;;;7.07;6.23;;;15.20;53.80;;;;;;5090132;28;20478;-84
2023/04/18 10:02:56;;;;;;;9.80;6.50;;;15.20;54.20;;;;;;5089280;28;21056;-83
2023/04/18 10:05:30;;;;;;;6.87;6.07;;;15.20;54.20;;;;;;5075784;28;20460;-83
2023/04/18 10:07:58;;;;;;;6.77;5.30;;;15.30;54.30;;;;;;5088779;28;20950;-85
2023/04/18 10:10:26;;;;;;;8.50;5.67;;;15.30;54.60;;;;;;5089760;28;20457;-86
2023/04/18 10:12:55;;;;;;;8.43;5.50;;;15.30;54.10;;;;;;5076347;28;20471;-85
2023/04/18 10:15:25;;;;;;;9.33;6.30;;;15.40;53.80;;;;;;5093553;28;20447;-85
2023/04/18 10:17:54;;;;;;;6.70;5.20;;;15.50;53.50;;;;;;5092556;28;20440;-85
2023/04/18 10:20:23;;;;;;;6.47;5.17;;;15.50;53.40;;;;;;5091466;28;20467;-86
2023/04/18 10:22:52;;;;;;;8.20;6.07;;;15.90;53.20;;;;;;5091354;28;21061;-87
2023/04/18 10:25:52;;;;;;;9.73;5.50;;;16.00;52.10;;;;;;5054195;28;20455;-85
2023/04/18 10:28:20;;;;;;;7.43;5.87;;;15.90;52.20;;;;;;5045853;28;20548;-85
2023/04/18 10:30:55;;;;;;;8.67;5.80;;;15.80;52.30;;;;;;5032724;28;20465;-85
2023/04/18 10:33:29;;;;;;;7.07;5.13;;;15.80;52.40;;;;;;5069922;28;20457;-86
2023/04/18 10:35:58;;;;;;;8.13;6.00;;;15.80;52.50;;;;;;5091623;28;20494;-85
2023/04/18 10:38:26;;;;;;;10.03;5.90;;;15.70;52.60;;;;;;5091644;28;20443;-85
2023/04/18 10:40:53;;;;;;;9.73;6.80;;;15.70;53.10;;;;;;5072690;28;20455;-85
2023/04/18 10:43:20;;;;;;;11.30;7.93;;;15.90;52.70;;;;;;5092625;28;20463;-84
2023/04/18 10:46:11;;;;;;;9.13;5.93;;;15.90;52.60;;;;;;5053512;28;20439;-86
2023/04/18 10:48:38;;;;;;;8.43;5.60;;;16.00;52.50;;;;;;5055272;28;20451;-85
2023/04/18 10:51:15;;;;;;;11.50;5.73;;;15.90;52.20;;;;;;5084314;28;20546;-85
2023/04/18 10:53:49;;;;;;;8.00;5.90;;;15.80;52.50;;;;;;5091851;28;20471;-85
2023/04/18 10:56:16;;;;;;;7.97;6.00;;;16.00;52.50;;;;;;5090373;28;20976;-86
2023/04/18 10:58:49;;;;;;;9.20;6.50;;;15.90;52.20;;;;;;5088941;28;20443;-87
2023/04/18 11:01:25;;;;;;;7.73;6.20;;;16.00;52.40;;;;;;5083420;28;20901;-86
2023/04/18 11:03:53;;;;;;;7.47;5.83;;;16.20;52.80;;;;;;5057684;28;20466;-85
2023/04/18 11:06:21;;;;;;;5.63;4.87;;;16.20;52.00;;;;;;5091277;28;20447;-87
2023/04/18 11:08:49;;;;;;;7.97;5.70;;;16.30;52.00;;;;;;5089317;28;21961;-84
2023/04/18 11:11:16;;;;;;;6.83;5.70;;;16.20;51.40;;;;;;5092619;28;20780;-84
2023/04/18 11:13:57;;;;;;;8.03;6.50;;;16.20;52.20;;;;;;5057337;28;20478;-84
2023/04/18 11:16:28;;;;;;;8.93;6.40;;;16.10;52.70;;;;;;5092917;28;20515;-87
2023/04/18 11:18:55;;;;;;;7.03;6.20;;;16.20;52.50;;;;;;5062313;28;20450;-85
2023/04/18 11:21:22;;;;;;;14.00;6.60;;;16.30;52.90;;;;;;5105448;27;20956;-86
2023/04/18 11:23:50;;;;;;;7.17;5.57;;;16.50;52.40;;;;;;5077800;28;20499;-85
2023/04/18 11:26:18;;;;;;;8.47;6.57;;;16.50;52.20;;;;;;5094804;27;20436;-84
2023/04/18 11:28:51;;;;;;;8.90;6.40;;;16.60;51.80;;;;;;5063173;28;20438;-86
2023/04/18 11:31:21;;;;;;;10.63;6.53;;;16.50;51.50;;;;;;5105896;27;20932;-84
2023/04/18 11:33:48;;;;;;;9.70;6.83;;;16.30;52.60;;;;;;5093500;27;20506;-85
2023/04/18 11:36:15;;;;;;;6.77;5.60;;;16.50;52.60;;;;;;5092603;27;20478;-85
2023/04/18 11:38:42;;;;;;;6.23;5.57;;;16.70;52.30;;;;;;5107260;27;20893;-84
2023/04/18 11:41:14;;;;;;;5.90;5.13;;;16.80;52.00;;;;;;5091005;27;21006;-85
2023/04/18 11:43:46;;;;;;;9.30;7.30;;;17.00;52.20;;;;;;5089430;28;21094;-85
2023/04/18 11:46:13;;;;;;;8.57;6.20;;;17.10;51.70;;;;;;5089509;28;20459;-84
2023/04/18 11:48:44;;;;;;;8.23;6.77;;;17.10;50.80;;;;;;5088114;28;20460;-85
2023/04/18 11:51:32;;;;;;;7.03;6.30;;;17.20;50.50;;;;;;5087506;28;20463;-85
2023/04/18 11:54:00;;;;;;;8.20;6.57;;;17.30;50.20;;;;;;5074726;28;21085;-85
2023/04/18 11:56:31;;;;;;;7.27;5.50;;;17.50;50.40;;;;;;5108002;27;20459;-85
2023/04/18 11:58:58;;;;;;;8.20;5.53;;;17.60;49.90;;;;;;5074572;28;20452;-85
2023/04/18 12:01:26;;;;;;;6.70;4.90;;;17.50;49.30;;;;;;5081625;28;20949;-86
2023/04/18 12:04:04;;;;;;;8.83;6.27;;;17.30;49.80;;;;;;5092050;27;20545;-84
2023/04/18 12:06:46;;;;;;;8.80;5.97;;;17.10;49.90;;;;;;5108879;27;20474;-84
2023/04/18 12:09:14;;;;;;;8.27;5.53;;;17.00;49.50;;;;;;5065107;27;20462;-85
2023/04/18 12:11:42;;;;;;;9.47;6.77;;;17.00;49.80;;;;;;5092439;28;20488;-84
2023/04/18 12:14:19;;;;;;;7.20;6.30;;;16.80;49.50;;;;;;5092582;27;20514;-84
2023/04/18 12:16:46;;;;;;;8.47;6.37;;;16.90;50.10;;;;;;5091172;28;20995;-83
2023/04/18 12:19:14;;;;;;;6.83;5.70;;;17.10;49.80;;;;;;5108820;27;20451;-83
2023/04/18 12:21:55;;;;;;;7.57;5.83;;;17.40;49.90;;;;;;5072544;28;20884;-84
2023/04/18 12:24:24;;;;;;;8.00;6.30;;;17.50;49.30;;;;;;5092311;27;20454;-84
2023/04/18 12:26:52;;;;;;;8.00;6.37;;;17.50;47.70;;;;;;5083507;28;20935;-84
2023/04/18 12:29:19;;;;;;;6.10;5.30;;;17.70;49.10;;;;;;5089095;27;20435;-85
2023/04/18 12:31:47;;;;;;;7.93;6.30;;;17.60;47.70;;;;;;5087266;28;20448;-85
2023/04/18 12:34:14;;;;;;;8.27;6.63;;;17.30;47.30;;;;;;5088849;27;20444;-83
2023/04/18 12:36:41;;;;;;;8.10;6.30;;;17.60;48.10;;;;;;5088971;27;21056;-85
2023/04/18 12:39:09;;;;;;;8.43;5.60;;;17.70;47.50;;;;;;5088678;27;20840;-85
2023/04/18 12:41:36;;;;;;;7.50;5.80;;;17.90;47.90;;;;;;5090154;28;20869;-85
2023/04/18 12:44:04;;;;;;;7.53;5.03;;;18.10;48.10;;;;;;5090062;27;20463;-84